sensor_id;sensor_type;location;lat;lon;timestamp;pressure;altitude;pressure_sealevel;temperature
15360;BMP280;7779;49.596;11.070;2024-03-02T00:00:51;97224.69;;;10.39
15360;BMP280;7779;49.596;11.070;2024-03-02T00:03:18;97223.88;;;10.40
15360;BMP280;7779;49.596;11.070;2024-03-02T00:05:50;97224.88;;;10.43
15360;BMP280;7779;49.596;11.070;2024-03-02T00:08:23;97216.50;;;10.43
15360;BMP280;7779;49.596;11.070;2024-03-02T00:10:51;97221.50;;;10.43
15360;BMP280;7779;49.596;11.070;2024-03-02T00:13:21;97212.41;;;10.45
15360;BMP280;7779;49.596;11.070;2024-03-02T00:15:54;97215.81;;;10.47
15360;BMP280;7779;49.596;11.070;2024-03-02T00:18:25;97221.72;;;10.47
15360;BMP280;7779;49.596;11.070;2024-03-02T00:20:56;97219.22;;;10.49
15360;BMP280;7779;49.596;11.070;2024-03-02T00:23:24;97220.16;;;10.51
15360;BMP280;7779;49.596;11.070;2024-03-02T00:25:54;97208.56;;;10.52
15360;BMP280;7779;49.596;11.070;2024-03-02T00:28:25;97205.31;;;10.55
15360;BMP280;7779;49.596;11.070;2024-03-02T00:33:22;97207.13;;;10.59
15360;BMP280;7779;49.596;11.070;2024-03-02T00:35:49;97206.38;;;10.61
15360;BMP280;7779;49.596;11.070;2024-03-02T00:38:15;97207.31;;;10.63
15360;BMP280;7779;49.596;11.070;2024-03-02T00:40:43;97203.22;;;10.65
15360;BMP280;7779;49.596;11.070;2024-03-02T00:46:02;97206.56;;;10.66
15360;BMP280;7779;49.596;11.070;2024-03-02T00:48:29;97207.41;;;10.66
15360;BMP280;7779;49.596;11.070;2024-03-02T00:50:57;97209.97;;;10.68
15360;BMP280;7779;49.596;11.070;2024-03-02T00:53:26;97211.03;;;10.73
15360;BMP280;7779;49.596;11.070;2024-03-02T00:55:52;97208.59;;;10.76
15360;BMP280;7779;49.596;11.070;2024-03-02T00:58:18;97212.09;;;10.79
15360;BMP280;7779;49.596;11.070;2024-03-02T01:00:44;97213.88;;;10.82
15360;BMP280;7779;49.596;11.070;2024-03-02T01:03:09;97218.13;;;10.84
15360;BMP280;7779;49.596;11.070;2024-03-02T01:05:36;97223.19;;;10.86
15360;BMP280;7779;49.596;11.070;2024-03-02T01:08:02;97219.94;;;10.88
15360;BMP280;7779;49.596;11.070;2024-03-02T01:10:28;97219.22;;;10.91
15360;BMP280;7779;49.596;11.070;2024-03-02T01:12:54;97225.19;;;10.94
15360;BMP280;7779;49.596;11.070;2024-03-02T01:15:19;97227.78;;;10.97
15360;BMP280;7779;49.596;11.070;2024-03-02T01:17:46;97222.00;;;10.98
15360;BMP280;7779;49.596;11.070;2024-03-02T01:20:12;97220.41;;;11.00
15360;BMP280;7779;49.596;11.070;2024-03-02T01:22:37;97224.59;;;11.01
15360;BMP280;7779;49.596;11.070;2024-03-02T01:25:03;97223.81;;;11.02
15360;BMP280;7779;49.596;11.070;2024-03-02T01:27:29;97225.47;;;11.01
15360;BMP280;7779;49.596;11.070;2024-03-02T01:29:55;97223.81;;;11.02
15360;BMP280;7779;49.596;11.070;2024-03-02T01:32:21;97216.34;;;11.03
15360;BMP280;7779;49.596;11.070;2024-03-02T01:34:46;97227.22;;;11.04
15360;BMP280;7779;49.596;11.070;2024-03-02T01:37:12;97221.38;;;11.03
15360;BMP280;7779;49.596;11.070;2024-03-02T01:39:38;97222.22;;;11.04
15360;BMP280;7779;49.596;11.070;2024-03-02T01:42:04;97228.03;;;11.03
15360;BMP280;7779;49.596;11.070;2024-03-02T01:44:30;97227.09;;;11.01
15360;BMP280;7779;49.596;11.070;2024-03-02T01:46:56;97219.66;;;11.02
15360;BMP280;7779;49.596;11.070;2024-03-02T01:49:21;97218.81;;;11.02
15360;BMP280;7779;49.596;11.070;2024-03-02T01:51:48;97207.88;;;11.00
15360;BMP280;7779;49.596;11.070;2024-03-02T01:54:14;97221.19;;;10.99
15360;BMP280;7779;49.596;11.070;2024-03-02T01:56:40;97219.44;;;10.96
15360;BMP280;7779;49.596;11.070;2024-03-02T01:59:06;97219.31;;;10.93
15360;BMP280;7779;49.596;11.070;2024-03-02T02:01:32;97225.97;;;10.93
15360;BMP280;7779;49.596;11.070;2024-03-02T02:03:57;97220.81;;;10.89
15360;BMP280;7779;49.596;11.070;2024-03-02T02:06:23;97223.25;;;10.87
15360;BMP280;7779;49.596;11.070;2024-03-02T02:08:49;97223.13;;;10.84
15360;BMP280;7779;49.596;11.070;2024-03-02T02:11:16;97223.88;;;10.82
15360;BMP280;7779;49.596;11.070;2024-03-02T02:13:42;97224.59;;;10.79
15360;BMP280;7779;49.596;11.070;2024-03-02T02:16:08;97217.00;;;10.76
15360;BMP280;7779;49.596;11.070;2024-03-02T02:18:35;97223.53;;;10.73
15360;BMP280;7779;49.596;11.070;2024-03-02T02:21:02;97222.56;;;10.69
15360;BMP280;7779;49.596;11.070;2024-03-02T02:23:28;97219.03;;;10.64
15360;BMP280;7779;49.596;11.070;2024-03-02T02:25:54;97217.16;;;10.59
15360;BMP280;7779;49.596;11.070;2024-03-02T02:28:20;97224.50;;;10.54
15360;BMP280;7779;49.596;11.070;2024-03-02T02:30:46;97227.66;;;10.51
15360;BMP280;7779;49.596;11.070;2024-03-02T02:33:11;97229.22;;;10.47
15360;BMP280;7779;49.596;11.070;2024-03-02T02:35:37;97232.44;;;10.45
15360;BMP280;7779;49.596;11.070;2024-03-02T02:38:04;97230.69;;;10.42
15360;BMP280;7779;49.596;11.070;2024-03-02T02:40:30;97231.53;;;10.43
15360;BMP280;7779;49.596;11.070;2024-03-02T02:42:57;97229.03;;;10.43
15360;BMP280;7779;49.596;11.070;2024-03-02T02:45:23;97227.28;;;10.40
15360;BMP280;7779;49.596;11.070;2024-03-02T02:47:48;97238.13;;;10.41
15360;BMP280;7779;49.596;11.070;2024-03-02T02:50:14;97235.56;;;10.39
15360;BMP280;7779;49.596;11.070;2024-03-02T02:52:42;97231.41;;;10.40
15360;BMP280;7779;49.596;11.070;2024-03-02T02:55:10;97231.41;;;10.40
15360;BMP280;7779;49.596;11.070;2024-03-02T02:57:38;97231.41;;;10.40
15360;BMP280;7779;49.596;11.070;2024-03-02T03:00:13;97222.25;;;10.40
15360;BMP280;7779;49.596;11.070;2024-03-02T03:02:46;97228.09;;;10.41
15360;BMP280;7779;49.596;11.070;2024-03-02T03:05:13;97223.88;;;10.40
15360;BMP280;7779;49.596;11.070;2024-03-02T03:07:40;97221.38;;;10.40
15360;BMP280;7779;49.596;11.070;2024-03-02T03:10:07;97222.34;;;10.43
15360;BMP280;7779;49.596;11.070;2024-03-02T03:12:34;97229.88;;;10.43
15360;BMP280;7779;49.596;11.070;2024-03-02T03:15:00;97227.44;;;10.45
15360;BMP280;7779;49.596;11.070;2024-03-02T03:17:26;97225.06;;;10.48
15360;BMP280;7779;49.596;11.070;2024-03-02T03:19:53;97231.75;;;10.49
15360;BMP280;7779;49.596;11.070;2024-03-02T03:22:18;97226.03;;;10.51
15360;BMP280;7779;49.596;11.070;2024-03-02T03:24:44;97227.00;;;10.54
15360;BMP280;7779;49.596;11.070;2024-03-02T03:27:10;97227.09;;;10.57
15360;BMP280;7779;49.596;11.070;2024-03-02T03:29:39;97226.31;;;10.58
15360;BMP280;7779;49.596;11.070;2024-03-02T03:32:05;97217.28;;;10.62
15360;BMP280;7779;49.596;11.070;2024-03-02T03:34:35;97220.75;;;10.65
15360;BMP280;7779;49.596;11.070;2024-03-02T03:37:02;97219.94;;;10.66
15360;BMP280;7779;49.596;11.070;2024-03-02T03:39:28;97224.09;;;10.66
15360;BMP280;7779;49.596;11.070;2024-03-02T03:41:54;97218.31;;;10.67
15360;BMP280;7779;49.596;11.070;2024-03-02T03:44:20;97218.34;;;10.68
15360;BMP280;7779;49.596;11.070;2024-03-02T03:46:45;97219.25;;;10.70
15360;BMP280;7779;49.596;11.070;2024-03-02T03:49:11;97220.97;;;10.71
15360;BMP280;7779;49.596;11.070;2024-03-02T03:51:37;97226.94;;;10.75
15360;BMP280;7779;49.596;11.070;2024-03-02T03:54:03;97222.00;;;10.76
15360;BMP280;7779;49.596;11.070;2024-03-02T03:56:28;97225.41;;;10.78
15360;BMP280;7779;49.596;11.070;2024-03-02T03:58:54;97218.00;;;10.81
15360;BMP280;7779;49.596;11.070;2024-03-02T04:01:20;97215.63;;;10.84
15360;BMP280;7779;49.596;11.070;2024-03-02T04:03:47;97221.53;;;10.86
15360;BMP280;7779;49.596;11.070;2024-03-02T04:06:13;97213.25;;;10.87
15360;BMP280;7779;49.596;11.070;2024-03-02T04:08:41;97208.22;;;10.87
15360;BMP280;7779;49.596;11.070;2024-03-02T04:11:06;97218.19;;;10.86
15360;BMP280;7779;49.596;11.070;2024-03-02T04:13:33;97214.78;;;10.84
15360;BMP280;7779;49.596;11.070;2024-03-02T04:15:59;97223.94;;;10.83
15360;BMP280;7779;49.596;11.070;2024-03-02T04:18:24;97224.66;;;10.81
15360;BMP280;7779;49.596;11.070;2024-03-02T04:20:50;97219.56;;;10.78
15360;BMP280;7779;49.596;11.070;2024-03-02T04:23:16;97222.00;;;10.76
15360;BMP280;7779;49.596;11.070;2024-03-02T04:25:42;97226.94;;;10.75
15360;BMP280;7779;49.596;11.070;2024-03-02T04:28:07;97229.41;;;10.73
15360;BMP280;7779;49.596;11.070;2024-03-02T04:30:33;97223.41;;;10.70
15360;BMP280;7779;49.596;11.070;2024-03-02T04:32:59;97229.19;;;10.67
15360;BMP280;7779;49.596;11.070;2024-03-02T04:35:25;97224.09;;;10.66
15360;BMP280;7779;49.596;11.070;2024-03-02T04:37:51;97235.72;;;10.64
15360;BMP280;7779;49.596;11.070;2024-03-02T04:40:16;97238.09;;;10.61
15360;BMP280;7779;49.596;11.070;2024-03-02T04:42:42;97237.13;;;10.57
15360;BMP280;7779;49.596;11.070;2024-03-02T04:45:08;97239.53;;;10.54
15360;BMP280;7779;49.596;11.070;2024-03-02T04:47:34;97233.59;;;10.52
15360;BMP280;7779;49.596;11.070;2024-03-02T04:50:00;97242.69;;;10.51
15360;BMP280;7779;49.596;11.070;2024-03-02T04:52:26;97241.78;;;10.49
15360;BMP280;7779;49.596;11.070;2024-03-02T04:54:51;97241.66;;;10.46
15360;BMP280;7779;49.596;11.070;2024-03-02T04:57:35;97244.94;;;10.45
15360;BMP280;7779;49.596;11.070;2024-03-02T05:00:01;97243.13;;;10.41
15360;BMP280;7779;49.596;11.070;2024-03-02T05:02:27;97247.22;;;10.39
15360;BMP280;7779;49.596;11.070;2024-03-02T05:04:53;97249.59;;;10.36
15360;BMP280;7779;49.596;11.070;2024-03-02T05:07:18;97245.41;;;10.35
15360;BMP280;7779;49.596;11.070;2024-03-02T05:09:44;97240.28;;;10.32
15360;BMP280;7779;49.596;11.070;2024-03-02T05:12:10;97240.19;;;10.30
15360;BMP280;7779;49.596;11.070;2024-03-02T05:14:55;97251.66;;;10.25
15360;BMP280;7779;49.596;11.070;2024-03-02T05:17:21;97250.75;;;10.23
15360;BMP280;7779;49.596;11.070;2024-03-02T05:19:47;97259.00;;;10.21
15360;BMP280;7779;49.596;11.070;2024-03-02T05:22:13;97254.75;;;10.18
15360;BMP280;7779;49.596;11.070;2024-03-02T05:24:39;97259.63;;;10.15
15360;BMP280;7779;49.596;11.070;2024-03-02T05:27:04;97261.22;;;10.13
15360;BMP280;7779;49.596;11.070;2024-03-02T05:29:31;97258.63;;;10.12
15360;BMP280;7779;49.596;11.070;2024-03-02T05:31:57;97261.00;;;10.09
15360;BMP280;7779;49.596;11.070;2024-03-02T05:34:23;97257.53;;;10.06
15360;BMP280;7779;49.596;11.070;2024-03-02T05:36:48;97253.25;;;10.03
15360;BMP280;7779;49.596;11.070;2024-03-02T05:39:14;97260.69;;;10.02
15360;BMP280;7779;49.596;11.070;2024-03-02T05:41:41;97253.88;;;9.98
15360;BMP280;7779;49.596;11.070;2024-03-02T05:44:07;97253.81;;;9.96
15360;BMP280;7779;49.596;11.070;2024-03-02T05:46:32;97260.38;;;9.94
15360;BMP280;7779;49.596;11.070;2024-03-02T05:49:00;97259.47;;;9.92
15360;BMP280;7779;49.596;11.070;2024-03-02T05:51:26;97261.03;;;9.90
15360;BMP280;7779;49.596;11.070;2024-03-02T05:53:52;97264.31;;;9.89
15360;BMP280;7779;49.596;11.070;2024-03-02T05:56:17;97266.69;;;9.86
15360;BMP280;7779;49.596;11.070;2024-03-02T05:58:43;97271.63;;;9.85
15360;BMP280;7779;49.596;11.070;2024-03-02T06:01:23;97264.88;;;9.82
15360;BMP280;7779;49.596;11.070;2024-03-02T06:03:55;97269.81;;;9.81
15360;BMP280;7779;49.596;11.070;2024-03-02T06:06:23;97265.50;;;9.78
15360;BMP280;7779;49.596;11.070;2024-03-02T06:08:48;97267.91;;;9.75
15360;BMP280;7779;49.596;11.070;2024-03-02T06:11:14;97268.69;;;9.74
15360;BMP280;7779;49.596;11.070;2024-03-02T06:13:40;97276.06;;;9.72
15360;BMP280;7779;49.596;11.070;2024-03-02T06:16:06;97271.00;;;9.70
15360;BMP280;7779;49.596;11.070;2024-03-02T06:18:32;97274.22;;;9.68
15360;BMP280;7779;49.596;11.070;2024-03-02T06:20:57;97282.53;;;9.67
15360;BMP280;7779;49.596;11.070;2024-03-02T06:23:23;97282.38;;;9.64
15360;BMP280;7779;49.596;11.070;2024-03-02T06:25:49;97277.28;;;9.61
15360;BMP280;7779;49.596;11.070;2024-03-02T06:28:14;97280.63;;;9.61
15360;BMP280;7779;49.596;11.070;2024-03-02T06:30:41;97275.53;;;9.60
15360;BMP280;7779;49.596;11.070;2024-03-02T06:33:08;97276.31;;;9.59
15360;BMP280;7779;49.596;11.070;2024-03-02T06:35:34;97285.53;;;9.60
15360;BMP280;7779;49.596;11.070;2024-03-02T06:38:01;97283.81;;;9.59
15360;BMP280;7779;49.596;11.070;2024-03-02T06:40:27;97283.03;;;9.60
15360;BMP280;7779;49.596;11.070;2024-03-02T06:42:52;97279.63;;;9.58
15360;BMP280;7779;49.596;11.070;2024-03-02T06:45:18;97271.31;;;9.59
15360;BMP280;7779;49.596;11.070;2024-03-02T06:47:44;97281.53;;;9.63
15360;BMP280;7779;49.596;11.070;2024-03-02T06:50:10;97278.22;;;9.64
15360;BMP280;7779;49.596;11.070;2024-03-02T06:52:36;97278.44;;;9.69
15360;BMP280;7779;49.596;11.070;2024-03-02T06:55:02;97277.69;;;9.71
15360;BMP280;7779;49.596;11.070;2024-03-02T06:57:30;97272.00;;;9.73
15360;BMP280;7779;49.596;11.070;2024-03-02T06:59:55;97277.09;;;9.76
15360;BMP280;7779;49.596;11.070;2024-03-02T07:02:24;97273.94;;;9.80
15360;BMP280;7779;49.596;11.070;2024-03-02T07:04:53;97277.47;;;9.85
15360;BMP280;7779;49.596;11.070;2024-03-02T07:07:19;97279.31;;;9.89
15360;BMP280;7779;49.596;11.070;2024-03-02T07:09:45;97282.91;;;9.94
15360;BMP280;7779;49.596;11.070;2024-03-02T07:12:11;97280.72;;;10.02
15360;BMP280;7779;49.596;11.070;2024-03-02T07:14:36;97286.09;;;10.11
15360;BMP280;7779;49.596;11.070;2024-03-02T07:17:34;97281.41;;;10.18
15360;BMP280;7779;49.596;11.070;2024-03-02T07:20:03;97283.44;;;10.26
15360;BMP280;7779;49.596;11.070;2024-03-02T07:22:32;97284.56;;;10.34
15360;BMP280;7779;49.596;11.070;2024-03-02T07:24:58;97282.44;;;10.43
15360;BMP280;7779;49.596;11.070;2024-03-02T07:27:24;97287.09;;;10.54
15360;BMP280;7779;49.596;11.070;2024-03-02T07:29:50;97287.63;;;10.68
15360;BMP280;7779;49.596;11.070;2024-03-02T07:32:16;97288.13;;;10.81
15360;BMP280;7779;49.596;11.070;2024-03-02T07:34:41;97292.88;;;10.95
15360;BMP280;7779;49.596;11.070;2024-03-02T07:37:07;97286.75;;;11.09
15360;BMP280;7779;49.596;11.070;2024-03-02T07:39:33;97289.78;;;11.23
15360;BMP280;7779;49.596;11.070;2024-03-02T07:42:00;97289.44;;;11.37
15360;BMP280;7779;49.596;11.070;2024-03-02T07:44:25;97283.22;;;11.48
15360;BMP280;7779;49.596;11.070;2024-03-02T07:46:51;97285.31;;;11.59
15360;BMP280;7779;49.596;11.070;2024-03-02T07:49:18;97278.94;;;11.69
15360;BMP280;7779;49.596;11.070;2024-03-02T07:51:44;97281.84;;;11.79
15360;BMP280;7779;49.596;11.070;2024-03-02T07:54:10;97279.66;;;11.88
15360;BMP280;7779;49.596;11.070;2024-03-02T07:56:36;97275.78;;;11.97
15360;BMP280;7779;49.596;11.070;2024-03-02T07:59:03;97282.78;;;12.06
15360;BMP280;7779;49.596;11.070;2024-03-02T08:01:32;97283.88;;;12.13
15360;BMP280;7779;49.596;11.070;2024-03-02T08:04:01;97279.16;;;12.22
15360;BMP280;7779;49.596;11.070;2024-03-02T08:06:29;97283.56;;;12.29
15360;BMP280;7779;49.596;11.070;2024-03-02T08:08:57;97287.19;;;12.37
15360;BMP280;7779;49.596;11.070;2024-03-02T08:11:23;97286.56;;;12.44
15360;BMP280;7779;49.596;11.070;2024-03-02T08:13:50;97280.00;;;12.48
15360;BMP280;7779;49.596;11.070;2024-03-02T08:16:16;97284.47;;;12.56
15360;BMP280;7779;49.596;11.070;2024-03-02T08:18:46;97282.19;;;12.63
15360;BMP280;7779;49.596;11.070;2024-03-02T08:21:13;97291.63;;;12.70
15360;BMP280;7779;49.596;11.070;2024-03-02T08:23:40;97285.13;;;12.77
15360;BMP280;7779;49.596;11.070;2024-03-02T08:26:08;97284.53;;;12.84
15360;BMP280;7779;49.596;11.070;2024-03-02T08:28:34;97282.22;;;12.89
15360;BMP280;7779;49.596;11.070;2024-03-02T08:31:00;97284.94;;;12.97
15360;BMP280;7779;49.596;11.070;2024-03-02T08:33:26;97280.97;;;13.03
15360;BMP280;7779;49.596;11.070;2024-03-02T08:35:52;97276.13;;;13.09
15360;BMP280;7779;49.596;11.070;2024-03-02T08:38:17;97285.53;;;13.16
15360;BMP280;7779;49.596;11.070;2024-03-02T08:40:44;97286.53;;;13.21
15360;BMP280;7779;49.596;11.070;2024-03-02T08:43:10;97284.16;;;13.26
15360;BMP280;7779;49.596;11.070;2024-03-02T08:45:36;97285.19;;;13.32
15360;BMP280;7779;49.596;11.070;2024-03-02T08:48:02;97281.94;;;13.36
15360;BMP280;7779;49.596;11.070;2024-03-02T08:50:28;97286.34;;;13.43
15360;BMP280;7779;49.596;11.070;2024-03-02T08:52:54;97291.53;;;13.49
15360;BMP280;7779;49.596;11.070;2024-03-02T08:55:19;97297.72;;;13.60
15360;BMP280;7779;49.596;11.070;2024-03-02T08:57:45;97288.75;;;13.69
15360;BMP280;7779;49.596;11.070;2024-03-02T09:00:11;97289.94;;;13.81
15360;BMP280;7779;49.596;11.070;2024-03-02T09:02:37;97287.72;;;13.92
15360;BMP280;7779;49.596;11.070;2024-03-02T09:05:04;97285.53;;;14.02
15360;BMP280;7779;49.596;11.070;2024-03-02T09:07:30;97297.53;;;14.12
15360;BMP280;7779;49.596;11.070;2024-03-02T09:09:56;97283.53;;;14.21
15360;BMP280;7779;49.596;11.070;2024-03-02T09:12:22;97295.56;;;14.33
15360;BMP280;7779;49.596;11.070;2024-03-02T09:14:48;97290.81;;;14.43
15360;BMP280;7779;49.596;11.070;2024-03-02T09:17:14;97286.00;;;14.52
15360;BMP280;7779;49.596;11.070;2024-03-02T09:19:40;97291.28;;;14.62
15360;BMP280;7779;49.596;11.070;2024-03-02T09:22:06;97275.56;;;14.72
15360;BMP280;7779;49.596;11.070;2024-03-02T09:24:32;97282.50;;;14.82
15360;BMP280;7779;49.596;11.070;2024-03-02T09:27:01;97279.38;;;14.92
15360;BMP280;7779;49.596;11.070;2024-03-02T09:29:26;97273.69;;;15.00
15360;BMP280;7779;49.596;11.070;2024-03-02T09:31:52;97274.75;;;15.10
15360;BMP280;7779;49.596;11.070;2024-03-02T09:34:18;97269.94;;;15.19
15360;BMP280;7779;49.596;11.070;2024-03-02T09:36:43;97261.66;;;15.25
15360;BMP280;7779;49.596;11.070;2024-03-02T09:39:10;97265.97;;;15.31
15360;BMP280;7779;49.596;11.070;2024-03-02T09:41:37;97263.66;;;15.38
15360;BMP280;7779;49.596;11.070;2024-03-02T09:44:04;97268.88;;;15.47
15360;BMP280;7779;49.596;11.070;2024-03-02T09:46:31;97270.69;;;15.54
15360;BMP280;7779;49.596;11.070;2024-03-02T09:48:56;97264.06;;;15.59
15360;BMP280;7779;49.596;11.070;2024-03-02T09:51:23;97271.00;;;15.69
15360;BMP280;7779;49.596;11.070;2024-03-02T09:53:49;97269.47;;;15.77
15360;BMP280;7779;49.596;11.070;2024-03-02T09:56:15;97267.16;;;15.87
15360;BMP280;7779;49.596;11.070;2024-03-02T09:58:41;97255.53;;;15.97
15360;BMP280;7779;49.596;11.070;2024-03-02T10:01:08;97254.88;;;16.06
15360;BMP280;7779;49.596;11.070;2024-03-02T10:03:37;97255.06;;;16.17
15360;BMP280;7779;49.596;11.070;2024-03-02T10:06:23;97251.88;;;16.25
15360;BMP280;7779;49.596;11.070;2024-03-02T10:08:49;97253.66;;;16.31
15360;BMP280;7779;49.596;11.070;2024-03-02T10:11:31;97258.84;;;16.38
15360;BMP280;7779;49.596;11.070;2024-03-02T10:14:12;97254.78;;;16.47
15360;BMP280;7779;49.596;11.070;2024-03-02T10:16:40;97255.69;;;16.51
15360;BMP280;7779;49.596;11.070;2024-03-02T10:19:23;97254.97;;;16.58
15360;BMP280;7779;49.596;11.070;2024-03-02T10:21:55;97259.31;;;16.68
15360;BMP280;7779;49.596;11.070;2024-03-02T10:24:22;97256.91;;;16.74
15360;BMP280;7779;49.596;11.070;2024-03-02T10:26:50;97250.25;;;16.80
15360;BMP280;7779;49.596;11.070;2024-03-02T10:29:16;97245.31;;;16.87
15360;BMP280;7779;49.596;11.070;2024-03-02T10:31:45;97242.91;;;16.95
15360;BMP280;7779;49.596;11.070;2024-03-02T10:34:15;97248.84;;;17.00
15360;BMP280;7779;49.596;11.070;2024-03-02T10:36:43;97244.69;;;17.03
15360;BMP280;7779;49.596;11.070;2024-03-02T10:39:09;97245.66;;;17.10
15360;BMP280;7779;49.596;11.070;2024-03-02T10:41:37;97244.94;;;17.17
15360;BMP280;7779;49.596;11.070;2024-03-02T10:44:08;97237.47;;;17.25
15360;BMP280;7779;49.596;11.070;2024-03-02T10:46:36;97226.56;;;17.31
15360;BMP280;7779;49.596;11.070;2024-03-02T10:49:04;97233.44;;;17.41
15360;BMP280;7779;49.596;11.070;2024-03-02T10:51:32;97226.78;;;17.49
15360;BMP280;7779;49.596;11.070;2024-03-02T10:54:00;97211.66;;;17.55
15360;BMP280;7779;49.596;11.070;2024-03-02T10:56:32;97221.91;;;17.63
15360;BMP280;7779;49.596;11.070;2024-03-02T10:59:36;97219.47;;;17.71
15360;BMP280;7779;49.596;11.070;2024-03-02T11:02:05;97215.31;;;17.76
15360;BMP280;7779;49.596;11.070;2024-03-02T11:04:34;97215.38;;;17.86
15360;BMP280;7779;49.596;11.070;2024-03-02T11:07:04;97207.06;;;17.96
15360;BMP280;7779;49.596;11.070;2024-03-02T11:09:34;97193.63;;;18.06
15360;BMP280;7779;49.596;11.070;2024-03-02T11:12:15;97191.19;;;18.13
15360;BMP280;7779;49.596;11.070;2024-03-02T11:14:44;97190.47;;;18.25
15360;BMP280;7779;49.596;11.070;2024-03-02T11:17:13;97194.78;;;18.36
15360;BMP280;7779;49.596;11.070;2024-03-02T11:19:41;97183.88;;;18.44
15360;BMP280;7779;49.596;11.070;2024-03-02T11:22:08;97188.97;;;18.50
15360;BMP280;7779;49.596;11.070;2024-03-02T11:24:34;97199.16;;;18.53
15360;BMP280;7779;49.596;11.070;2024-03-02T11:27:06;97189.88;;;18.55
15360;BMP280;7779;49.596;11.070;2024-03-02T11:32:21;97173.84;;;18.59
15360;BMP280;7779;49.596;11.070;2024-03-02T11:34:50;97175.50;;;18.60
15360;BMP280;7779;49.596;11.070;2024-03-02T11:37:20;97169.63;;;18.61
15360;BMP280;7779;49.596;11.070;2024-03-02T11:39:49;97171.31;;;18.64
15360;BMP280;7779;49.596;11.070;2024-03-02T11:42:15;97178.13;;;18.66
15360;BMP280;7779;49.596;11.070;2024-03-02T11:44:47;97178.97;;;18.68
15360;BMP280;7779;49.596;11.070;2024-03-02T11:47:17;97173.03;;;18.69
15360;BMP280;7779;49.596;11.070;2024-03-02T11:49:50;97172.19;;;18.67
15360;BMP280;7779;49.596;11.070;2024-03-02T11:52:17;97168.78;;;18.65
15360;BMP280;7779;49.596;11.070;2024-03-02T11:54:47;97166.28;;;18.67
15360;BMP280;7779;49.596;11.070;2024-03-02T11:57:21;97167.97;;;18.66
15360;BMP280;7779;49.596;11.070;2024-03-02T11:59:50;97162.88;;;18.66
15360;BMP280;7779;49.596;11.070;2024-03-02T12:02:18;97159.53;;;18.70
15360;BMP280;7779;49.596;11.070;2024-03-02T12:04:45;97161.25;;;18.74
15360;BMP280;7779;49.596;11.070;2024-03-02T12:07:12;97158.69;;;18.74
15360;BMP280;7779;49.596;11.070;2024-03-02T12:09:38;97156.16;;;18.73
15360;BMP280;7779;49.596;11.070;2024-03-02T12:12:09;97153.63;;;18.70
15360;BMP280;7779;49.596;11.070;2024-03-02T12:14:37;97153.56;;;18.64
15360;BMP280;7779;49.596;11.070;2024-03-02T12:17:05;97143.38;;;18.56
15360;BMP280;7779;49.596;11.070;2024-03-02T12:19:32;97149.22;;;18.49
15360;BMP280;7779;49.596;11.070;2024-03-02T12:21:59;97136.50;;;18.43
15360;BMP280;7779;49.596;11.070;2024-03-02T12:24:29;97139.03;;;18.39
15360;BMP280;7779;49.596;11.070;2024-03-02T12:26:56;97144.03;;;18.33
15360;BMP280;7779;49.596;11.070;2024-03-02T12:29:23;97140.66;;;18.31
15360;BMP280;7779;49.596;11.070;2024-03-02T12:31:51;97138.94;;;18.27
15360;BMP280;7779;49.596;11.070;2024-03-02T12:34:18;97134.69;;;18.25
15360;BMP280;7779;49.596;11.070;2024-03-02T12:36:48;97125.38;;;18.21
15360;BMP280;7779;49.596;11.070;2024-03-02T12:39:20;97126.16;;;18.14
15360;BMP280;7779;49.596;11.070;2024-03-02T12:41:47;97126.91;;;18.07
15360;BMP280;7779;49.596;11.070;2024-03-02T12:44:16;97125.16;;;18.00
15360;BMP280;7779;49.596;11.070;2024-03-02T12:46:42;97125.13;;;17.94
15360;BMP280;7779;49.596;11.070;2024-03-02T12:49:11;97123.41;;;17.90
15360;BMP280;7779;49.596;11.070;2024-03-02T12:51:41;97113.22;;;17.87
15360;BMP280;7779;49.596;11.070;2024-03-02T12:54:09;97114.03;;;17.83
15360;BMP280;7779;49.596;11.070;2024-03-02T12:56:38;97114.03;;;17.82
15360;BMP280;7779;49.596;11.070;2024-03-02T12:59:06;97105.56;;;17.80
15360;BMP280;7779;49.596;11.070;2024-03-02T13:01:32;97114.00;;;17.80
15360;BMP280;7779;49.596;11.070;2024-03-02T13:03:59;97107.22;;;17.76
15360;BMP280;7779;49.596;11.070;2024-03-02T13:06:26;97114.78;;;17.73
15360;BMP280;7779;49.596;11.070;2024-03-02T13:08:55;97108.84;;;17.70
15360;BMP280;7779;49.596;11.070;2024-03-02T13:11:22;97104.63;;;17.70
15360;BMP280;7779;49.596;11.070;2024-03-02T13:13:49;97101.22;;;17.68
15360;BMP280;7779;49.596;11.070;2024-03-02T13:16:15;97099.50;;;17.66
15360;BMP280;7779;49.596;11.070;2024-03-02T13:18:44;97096.94;;;17.63
15360;BMP280;7779;49.596;11.070;2024-03-02T13:21:10;97098.63;;;17.62
15360;BMP280;7779;49.596;11.070;2024-03-02T13:23:36;97097.81;;;17.63
15360;BMP280;7779;49.596;11.070;2024-03-02T13:26:02;97095.28;;;17.63
15360;BMP280;7779;49.596;11.070;2024-03-02T13:28:28;97100.34;;;17.63
15360;BMP280;7779;49.596;11.070;2024-03-02T13:30:54;97100.34;;;17.63
15360;BMP280;7779;49.596;11.070;2024-03-02T13:33:20;97093.59;;;17.64
15360;BMP280;7779;49.596;11.070;2024-03-02T13:35:49;97094.44;;;17.66
15360;BMP280;7779;49.596;11.070;2024-03-02T13:38:19;97090.25;;;17.69
15360;BMP280;7779;49.596;11.070;2024-03-02T13:40:45;97092.84;;;17.72
15360;BMP280;7779;49.596;11.070;2024-03-02T13:43:11;97083.56;;;17.74
15360;BMP280;7779;49.596;11.070;2024-03-02T13:45:38;97086.13;;;17.79
15360;BMP280;7779;49.596;11.070;2024-03-02T13:48:05;97084.44;;;17.81
15360;BMP280;7779;49.596;11.070;2024-03-02T13:50:31;97078.56;;;17.83
15360;BMP280;7779;49.596;11.070;2024-03-02T13:52:56;97080.25;;;17.84
15360;BMP280;7779;49.596;11.070;2024-03-02T13:55:22;97076.91;;;17.85
15360;BMP280;7779;49.596;11.070;2024-03-02T13:57:48;97083.69;;;17.89
15360;BMP280;7779;49.596;11.070;2024-03-02T14:00:18;97078.66;;;17.92
15360;BMP280;7779;49.596;11.070;2024-03-02T14:02:45;97078.66;;;17.95
15360;BMP280;7779;49.596;11.070;2024-03-02T14:05:11;97075.31;;;17.96
15360;BMP280;7779;49.596;11.070;2024-03-02T14:07:39;97066.84;;;17.97
15360;BMP280;7779;49.596;11.070;2024-03-02T14:10:06;97080.38;;;17.99
15360;BMP280;7779;49.596;11.070;2024-03-02T14:12:32;97075.34;;;18.02
15360;BMP280;7779;49.596;11.070;2024-03-02T14:14:58;97072.84;;;18.05
15360;BMP280;7779;49.596;11.070;2024-03-02T14:17:26;97072.00;;;18.07